sensor_id;sensor_type;location;lat;lon;timestamp;P1;durP1;ratioP1;P2;durP2;ratioP2
12675;SDS011;63820;65.654;21.944;2023-04-15T00:03:12;4.77;;;1.87;;
12675;SDS011;63820;65.654;21.944;2023-04-15T00:06:55;3.33;;;1.93;;
12675;SDS011;63820;65.654;21.944;2023-04-15T00:10:39;8.40;;;2.27;;
12675;SDS011;63820;65.654;21.944;2023-04-15T00:14:22;2.67;;;1.80;;
12675;SDS011;63820;65.654;21.944;2023-04-15T00:18:05;3.13;;;2.27;;
12675;SDS011;63820;65.654;21.944;2023-04-15T00:21:48;4.67;;;1.80;;
12675;SDS011;63820;65.654;21.944;2023-04-15T00:25:31;5.00;;;1.60;;
12675;SDS011;63820;65.654;21.944;2023-04-15T00:29:14;3.90;;;1.80;;
12675;SDS011;63820;65.654;21.944;2023-04-15T00:32:56;4.27;;;1.73;;
12675;SDS011;63820;65.654;21.944;2023-04-15T00:36:39;6.17;;;1.90;;
12675;SDS011;63820;65.654;21.944;2023-04-15T00:40:22;3.13;;;1.73;;
12675;SDS011;63820;65.654;21.944;2023-04-15T00:44:06;3.77;;;1.80;;
12675;SDS011;63820;65.654;21.944;2023-04-15T00:47:49;4.37;;;1.70;;
12675;SDS011;63820;65.654;21.944;2023-04-15T00:51:32;8.13;;;1.90;;
12675;SDS011;63820;65.654;21.944;2023-04-15T00:55:15;2.40;;;1.67;;
12675;SDS011;63820;65.654;21.944;2023-04-15T00:58:58;4.73;;;1.67;;
12675;SDS011;63820;65.654;21.944;2023-04-15T01:02:41;7.87;;;1.90;;
12675;SDS011;63820;65.654;21.944;2023-04-15T01:06:24;4.70;;;1.80;;
12675;SDS011;63820;65.654;21.944;2023-04-15T01:10:07;4.67;;;1.83;;
12675;SDS011;63820;65.654;21.944;2023-04-15T01:13:51;2.70;;;1.80;;
12675;SDS011;63820;65.654;21.944;2023-04-15T01:17:34;6.90;;;1.77;;
12675;SDS011;63820;65.654;21.944;2023-04-15T01:21:17;5.83;;;2.03;;
12675;SDS011;63820;65.654;21.944;2023-04-15T01:25:03;2.77;;;2.10;;
12675;SDS011;63820;65.654;21.944;2023-04-15T01:28:48;4.33;;;1.70;;
12675;SDS011;63820;65.654;21.944;2023-04-15T01:32:31;3.73;;;1.80;;
12675;SDS011;63820;65.654;21.944;2023-04-15T01:36:14;6.10;;;1.87;;
12675;SDS011;63820;65.654;21.944;2023-04-15T01:39:56;5.63;;;2.20;;
12675;SDS011;63820;65.654;21.944;2023-04-15T01:43:40;4.20;;;2.13;;
12675;SDS011;63820;65.654;21.944;2023-04-15T01:47:23;3.67;;;2.03;;
12675;SDS011;63820;65.654;21.944;2023-04-15T01:51:06;5.33;;;1.63;;
12675;SDS011;63820;65.654;21.944;2023-04-15T01:54:48;4.77;;;2.10;;
12675;SDS011;63820;65.654;21.944;2023-04-15T01:58:31;2.60;;;1.60;;
12675;SDS011;63820;65.654;21.944;2023-04-15T02:02:14;3.87;;;2.07;;
12675;SDS011;63820;65.654;21.944;2023-04-15T02:05:57;5.70;;;2.20;;
12675;SDS011;63820;65.654;21.944;2023-04-15T02:09:40;7.47;;;2.23;;
12675;SDS011;63820;65.654;21.944;2023-04-15T02:13:23;3.33;;;2.00;;
12675;SDS011;63820;65.654;21.944;2023-04-15T02:17:06;4.70;;;1.73;;
12675;SDS011;63820;65.654;21.944;2023-04-15T02:20:50;3.10;;;1.87;;
12675;SDS011;63820;65.654;21.944;2023-04-15T02:24:33;4.57;;;1.97;;
12675;SDS011;63820;65.654;21.944;2023-04-15T02:28:16;5.53;;;2.00;;
12675;SDS011;63820;65.654;21.944;2023-04-15T02:31:59;3.60;;;2.03;;
12675;SDS011;63820;65.654;21.944;2023-04-15T02:35:42;3.40;;;1.90;;
12675;SDS011;63820;65.654;21.944;2023-04-15T02:39:25;2.77;;;1.60;;
12675;SDS011;63820;65.654;21.944;2023-04-15T02:43:08;5.60;;;1.87;;
12675;SDS011;63820;65.654;21.944;2023-04-15T02:46:52;3.07;;;1.80;;
12675;SDS011;63820;65.654;21.944;2023-04-15T02:50:35;4.87;;;1.83;;
12675;SDS011;63820;65.654;21.944;2023-04-15T02:54:18;3.30;;;1.80;;
12675;SDS011;63820;65.654;21.944;2023-04-15T02:58:01;4.00;;;2.03;;
12675;SDS011;63820;65.654;21.944;2023-04-15T03:01:44;3.10;;;1.60;;
12675;SDS011;63820;65.654;21.944;2023-04-15T03:05:27;3.93;;;1.67;;
12675;SDS011;63820;65.654;21.944;2023-04-15T03:09:10;6.10;;;2.00;;
12675;SDS011;63820;65.654;21.944;2023-04-15T03:12:53;4.93;;;1.70;;
12675;SDS011;63820;65.654;21.944;2023-04-15T03:16:36;2.97;;;1.50;;
12675;SDS011;63820;65.654;21.944;2023-04-15T03:20:19;2.80;;;1.90;;
12675;SDS011;63820;65.654;21.944;2023-04-15T03:24:02;3.83;;;1.53;;
12675;SDS011;63820;65.654;21.944;2023-04-15T03:27:45;2.43;;;1.67;;
12675;SDS011;63820;65.654;21.944;2023-04-15T03:31:28;4.37;;;1.63;;
12675;SDS011;63820;65.654;21.944;2023-04-15T03:35:10;2.43;;;1.70;;
12675;SDS011;63820;65.654;21.944;2023-04-15T03:38:53;2.70;;;1.40;;
12675;SDS011;63820;65.654;21.944;2023-04-15T03:42:36;3.17;;;1.57;;
12675;SDS011;63820;65.654;21.944;2023-04-15T03:46:19;3.13;;;1.30;;
12675;SDS011;63820;65.654;21.944;2023-04-15T03:50:01;3.43;;;1.50;;
12675;SDS011;63820;65.654;21.944;2023-04-15T03:53:44;1.87;;;1.50;;
12675;SDS011;63820;65.654;21.944;2023-04-15T03:57:27;2.17;;;1.60;;
12675;SDS011;63820;65.654;21.944;2023-04-15T04:01:10;3.63;;;1.50;;
12675;SDS011;63820;65.654;21.944;2023-04-15T04:04:53;1.80;;;1.33;;
12675;SDS011;63820;65.654;21.944;2023-04-15T04:08:36;2.10;;;1.40;;
12675;SDS011;63820;65.654;21.944;2023-04-15T04:12:19;2.43;;;1.57;;
12675;SDS011;63820;65.654;21.944;2023-04-15T04:16:02;3.50;;;1.40;;
12675;SDS011;63820;65.654;21.944;2023-04-15T04:19:44;5.77;;;1.87;;
12675;SDS011;63820;65.654;21.944;2023-04-15T04:23:27;3.27;;;1.47;;
12675;SDS011;63820;65.654;21.944;2023-04-15T04:27:10;3.23;;;1.80;;
12675;SDS011;63820;65.654;21.944;2023-04-15T04:30:54;3.10;;;1.50;;
12675;SDS011;63820;65.654;21.944;2023-04-15T04:34:37;1.97;;;1.40;;
12675;SDS011;63820;65.654;21.944;2023-04-15T04:38:20;3.33;;;1.53;;
12675;SDS011;63820;65.654;21.944;2023-04-15T04:42:03;5.13;;;1.60;;
12675;SDS011;63820;65.654;21.944;2023-04-15T04:45:46;4.80;;;1.60;;
12675;SDS011;63820;65.654;21.944;2023-04-15T04:49:29;4.67;;;1.80;;
12675;SDS011;63820;65.654;21.944;2023-04-15T04:53:12;2.33;;;1.43;;
12675;SDS011;63820;65.654;21.944;2023-04-15T04:56:55;1.90;;;1.27;;
12675;SDS011;63820;65.654;21.944;2023-04-15T05:00:39;2.67;;;1.80;;
12675;SDS011;63820;65.654;21.944;2023-04-15T05:04:21;2.43;;;1.70;;
12675;SDS011;63820;65.654;21.944;2023-04-15T05:08:04;2.43;;;1.53;;
12675;SDS011;63820;65.654;21.944;2023-04-15T05:11:47;2.23;;;1.67;;
12675;SDS011;63820;65.654;21.944;2023-04-15T05:15:30;3.47;;;1.70;;
12675;SDS011;63820;65.654;21.944;2023-04-15T05:19:13;3.27;;;1.67;;
12675;SDS011;63820;65.654;21.944;2023-04-15T05:22:56;3.00;;;1.70;;
12675;SDS011;63820;65.654;21.944;2023-04-15T05:26:39;2.53;;;1.70;;
12675;SDS011;63820;65.654;21.944;2023-04-15T05:30:22;2.20;;;1.40;;
12675;SDS011;63820;65.654;21.944;2023-04-15T05:34:05;2.43;;;1.40;;
12675;SDS011;63820;65.654;21.944;2023-04-15T05:37:48;2.30;;;1.27;;
12675;SDS011;63820;65.654;21.944;2023-04-15T05:41:31;2.27;;;1.43;;
12675;SDS011;63820;65.654;21.944;2023-04-15T05:45:14;2.07;;;1.43;;
12675;SDS011;63820;65.654;21.944;2023-04-15T05:48:57;4.40;;;1.80;;
12675;SDS011;63820;65.654;21.944;2023-04-15T05:52:41;2.57;;;1.53;;
12675;SDS011;63820;65.654;21.944;2023-04-15T05:56:24;3.17;;;1.50;;
12675;SDS011;63820;65.654;21.944;2023-04-15T06:00:07;2.13;;;1.30;;
12675;SDS011;63820;65.654;21.944;2023-04-15T06:03:50;3.50;;;1.60;;
12675;SDS011;63820;65.654;21.944;2023-04-15T06:07:33;1.87;;;1.40;;
12675;SDS011;63820;65.654;21.944;2023-04-15T06:11:15;1.77;;;1.53;;
12675;SDS011;63820;65.654;21.944;2023-04-15T06:14:59;1.60;;;1.43;;
12675;SDS011;63820;65.654;21.944;2023-04-15T06:18:42;1.77;;;1.40;;
12675;SDS011;63820;65.654;21.944;2023-04-15T06:22:25;2.10;;;1.40;;
12675;SDS011;63820;65.654;21.944;2023-04-15T06:26:08;1.40;;;1.30;;
12675;SDS011;63820;65.654;21.944;2023-04-15T06:29:51;1.65;;;1.15;;
12675;SDS011;63820;65.654;21.944;2023-04-15T06:33:34;1.50;;;1.40;;
12675;SDS011;63820;65.654;21.944;2023-04-15T06:37:16;1.50;;;1.40;;
12675;SDS011;63820;65.654;21.944;2023-04-15T06:40:00;1.80;;;1.42;;
12675;SDS011;63820;65.654;21.944;2023-04-15T06:42:45;1.98;;;1.58;;
12675;SDS011;63820;65.654;21.944;2023-04-15T06:45:29;2.38;;;1.55;;
12675;SDS011;63820;65.654;21.944;2023-04-15T06:48:14;1.88;;;1.58;;
12675;SDS011;63820;65.654;21.944;2023-04-15T06:50:58;9.00;;;1.90;;
12675;SDS011;63820;65.654;21.944;2023-04-15T06:53:43;1.85;;;1.52;;
12675;SDS011;63820;65.654;21.944;2023-04-15T06:56:27;2.05;;;1.45;;
12675;SDS011;63820;65.654;21.944;2023-04-15T06:59:11;2.22;;;1.55;;
12675;SDS011;63820;65.654;21.944;2023-04-15T07:01:55;2.38;;;1.50;;
12675;SDS011;63820;65.654;21.944;2023-04-15T07:04:39;2.80;;;1.50;;
12675;SDS011;63820;65.654;21.944;2023-04-15T07:07:23;1.90;;;1.70;;
12675;SDS011;63820;65.654;21.944;2023-04-15T07:10:08;2.30;;;1.40;;
12675;SDS011;63820;65.654;21.944;2023-04-15T07:12:54;2.50;;;1.50;;
12675;SDS011;63820;65.654;21.944;2023-04-15T07:15:39;1.73;;;1.50;;
12675;SDS011;63820;65.654;21.944;2023-04-15T07:18:24;3.58;;;1.90;;
12675;SDS011;63820;65.654;21.944;2023-04-15T07:21:08;1.80;;;1.70;;
12675;SDS011;63820;65.654;21.944;2023-04-15T07:23:52;2.47;;;1.80;;
12675;SDS011;63820;65.654;21.944;2023-04-15T07:26:37;2.08;;;1.50;;
12675;SDS011;63820;65.654;21.944;2023-04-15T07:29:21;2.47;;;1.60;;
12675;SDS011;63820;65.654;21.944;2023-04-15T07:32:05;1.77;;;1.60;;
12675;SDS011;63820;65.654;21.944;2023-04-15T07:34:49;2.05;;;1.35;;
12675;SDS011;63820;65.654;21.944;2023-04-15T07:37:33;1.83;;;1.60;;
12675;SDS011;63820;65.654;21.944;2023-04-15T07:40:17;2.40;;;1.70;;
12675;SDS011;63820;65.654;21.944;2023-04-15T07:43:01;2.15;;;1.95;;
12675;SDS011;63820;65.654;21.944;2023-04-15T07:45:46;2.17;;;1.65;;
12675;SDS011;63820;65.654;21.944;2023-04-15T07:48:30;2.38;;;1.70;;
12675;SDS011;63820;65.654;21.944;2023-04-15T07:51:14;2.40;;;1.50;;
12675;SDS011;63820;65.654;21.944;2023-04-15T07:53:58;1.60;;;1.50;;
12675;SDS011;63820;65.654;21.944;2023-04-15T07:56:42;2.75;;;1.80;;
12675;SDS011;63820;65.654;21.944;2023-04-15T07:59:26;4.07;;;1.90;;
12675;SDS011;63820;65.654;21.944;2023-04-15T08:02:12;1.52;;;1.42;;
12675;SDS011;63820;65.654;21.944;2023-04-15T08:04:57;1.70;;;1.60;;
12675;SDS011;63820;65.654;21.944;2023-04-15T08:07:42;4.82;;;2.10;;
12675;SDS011;63820;65.654;21.944;2023-04-15T08:10:26;1.80;;;1.70;;
12675;SDS011;63820;65.654;21.944;2023-04-15T08:13:11;3.70;;;1.88;;
12675;SDS011;63820;65.654;21.944;2023-04-15T08:19:03;4.00;;;1.77;;
12675;SDS011;63820;65.654;21.944;2023-04-15T08:21:48;3.15;;;2.00;;
12675;SDS011;63820;65.654;21.944;2023-04-15T08:24:32;1.90;;;1.65;;
12675;SDS011;63820;65.654;21.944;2023-04-15T08:27:17;5.20;;;2.25;;
12675;SDS011;63820;65.654;21.944;2023-04-15T08:30:01;3.63;;;2.00;;
12675;SDS011;63820;65.654;21.944;2023-04-15T08:32:46;3.97;;;2.10;;
12675;SDS011;63820;65.654;21.944;2023-04-15T08:35:30;2.38;;;2.00;;
12675;SDS011;63820;65.654;21.944;2023-04-15T08:38:15;4.53;;;2.20;;
12675;SDS011;63820;65.654;21.944;2023-04-15T08:41:02;3.75;;;2.25;;
12675;SDS011;63820;65.654;21.944;2023-04-15T08:43:53;3.40;;;2.17;;
12675;SDS011;63820;65.654;21.944;2023-04-15T08:46:40;4.97;;;3.25;;
12675;SDS011;63820;65.654;21.944;2023-04-15T08:49:25;8.25;;;4.15;;
12675;SDS011;63820;65.654;21.944;2023-04-15T08:52:10;5.35;;;3.97;;
12675;SDS011;63820;65.654;21.944;2023-04-15T08:54:56;8.20;;;4.25;;
12675;SDS011;63820;65.654;21.944;2023-04-15T08:57:41;5.68;;;3.80;;
12675;SDS011;63820;65.654;21.944;2023-04-15T09:00:26;7.47;;;4.15;;
12675;SDS011;63820;65.654;21.944;2023-04-15T09:03:10;8.80;;;4.00;;
12675;SDS011;63820;65.654;21.944;2023-04-15T09:05:55;7.10;;;3.58;;
12675;SDS011;63820;65.654;21.944;2023-04-15T09:08:39;4.80;;;3.28;;
12675;SDS011;63820;65.654;21.944;2023-04-15T09:11:24;7.03;;;3.30;;
12675;SDS011;63820;65.654;21.944;2023-04-15T09:14:08;10.90;;;3.38;;
12675;SDS011;63820;65.654;21.944;2023-04-15T09:16:59;6.90;;;3.15;;
12675;SDS011;63820;65.654;21.944;2023-04-15T09:19:44;2.92;;;2.45;;
12675;SDS011;63820;65.654;21.944;2023-04-15T09:22:31;4.50;;;2.38;;
12675;SDS011;63820;65.654;21.944;2023-04-15T09:28:07;5.07;;;2.80;;
12675;SDS011;63820;65.654;21.944;2023-04-15T09:30:54;5.65;;;2.38;;
12675;SDS011;63820;65.654;21.944;2023-04-15T09:33:53;4.78;;;2.38;;
12675;SDS011;63820;65.654;21.944;2023-04-15T09:36:54;5.95;;;2.60;;
12675;SDS011;63820;65.654;21.944;2023-04-15T09:39:46;3.05;;;2.10;;
12675;SDS011;63820;65.654;21.944;2023-04-15T09:42:34;4.05;;;2.05;;
12675;SDS011;63820;65.654;21.944;2023-04-15T09:45:19;2.47;;;2.08;;
12675;SDS011;63820;65.654;21.944;2023-04-15T09:48:14;3.38;;;2.20;;
12675;SDS011;63820;65.654;21.944;2023-04-15T09:51:05;2.50;;;2.20;;
12675;SDS011;63820;65.654;21.944;2023-04-15T09:53:50;4.75;;;2.28;;
12675;SDS011;63820;65.654;21.944;2023-04-15T09:56:39;3.13;;;1.98;;
12675;SDS011;63820;65.654;21.944;2023-04-15T09:59:26;4.50;;;2.03;;
12675;SDS011;63820;65.654;21.944;2023-04-15T10:02:10;4.68;;;2.10;;
12675;SDS011;63820;65.654;21.944;2023-04-15T10:04:56;4.68;;;2.10;;
12675;SDS011;63820;65.654;21.944;2023-04-15T10:07:41;3.28;;;2.00;;
12675;SDS011;63820;65.654;21.944;2023-04-15T10:10:26;3.53;;;1.98;;
12675;SDS011;63820;65.654;21.944;2023-04-15T10:13:12;4.50;;;2.38;;
12675;SDS011;63820;65.654;21.944;2023-04-15T10:16:11;3.72;;;2.22;;
12675;SDS011;63820;65.654;21.944;2023-04-15T10:18:58;2.58;;;1.70;;
12675;SDS011;63820;65.654;21.944;2023-04-15T10:21:44;5.38;;;2.40;;
12675;SDS011;63820;65.654;21.944;2023-04-15T10:24:30;3.47;;;2.38;;
12675;SDS011;63820;65.654;21.944;2023-04-15T10:27:15;2.60;;;2.05;;
12675;SDS011;63820;65.654;21.944;2023-04-15T10:30:00;4.80;;;2.35;;
12675;SDS011;63820;65.654;21.944;2023-04-15T10:32:46;4.20;;;2.30;;
12675;SDS011;63820;65.654;21.944;2023-04-15T10:35:31;5.93;;;2.58;;
12675;SDS011;63820;65.654;21.944;2023-04-15T10:38:32;4.78;;;2.55;;
12675;SDS011;63820;65.654;21.944;2023-04-15T10:41:25;4.20;;;2.30;;
12675;SDS011;63820;65.654;21.944;2023-04-15T10:44:14;5.55;;;2.95;;
12675;SDS011;63820;65.654;21.944;2023-04-15T10:46:58;5.35;;;2.92;;
12675;SDS011;63820;65.654;21.944;2023-04-15T10:49:43;5.38;;;3.08;;
12675;SDS011;63820;65.654;21.944;2023-04-15T10:52:32;5.82;;;3.30;;
12675;SDS011;63820;65.654;21.944;2023-04-15T10:55:24;4.85;;;3.60;;
12675;SDS011;63820;65.654;21.944;2023-04-15T10:58:10;5.03;;;3.33;;
12675;SDS011;63820;65.654;21.944;2023-04-15T11:00:54;6.57;;;3.40;;
12675;SDS011;63820;65.654;21.944;2023-04-15T11:03:39;6.35;;;3.30;;
12675;SDS011;63820;65.654;21.944;2023-04-15T11:06:42;5.80;;;3.13;;
12675;SDS011;63820;65.654;21.944;2023-04-15T11:09:31;4.70;;;2.90;;
12675;SDS011;63820;65.654;21.944;2023-04-15T11:12:16;3.33;;;2.30;;
12675;SDS011;63820;65.654;21.944;2023-04-15T11:18:16;3.97;;;2.50;;
12675;SDS011;63820;65.654;21.944;2023-04-15T11:21:11;4.50;;;2.55;;
12675;SDS011;63820;65.654;21.944;2023-04-15T11:23:55;4.93;;;2.47;;
12675;SDS011;63820;65.654;21.944;2023-04-15T11:26:40;7.97;;;2.97;;
12675;SDS011;63820;65.654;21.944;2023-04-15T11:29:28;5.00;;;2.67;;
12675;SDS011;63820;65.654;21.944;2023-04-15T11:32:14;7.30;;;3.20;;
12675;SDS011;63820;65.654;21.944;2023-04-15T11:34:58;5.10;;;2.30;;
12675;SDS011;63820;65.654;21.944;2023-04-15T11:37:46;6.27;;;2.50;;
12675;SDS011;63820;65.654;21.944;2023-04-15T11:40:32;4.67;;;2.00;;
12675;SDS011;63820;65.654;21.944;2023-04-15T11:43:21;2.37;;;1.83;;
12675;SDS011;63820;65.654;21.944;2023-04-15T11:46:05;4.70;;;2.10;;
12675;SDS011;63820;65.654;21.944;2023-04-15T11:48:51;4.50;;;2.43;;
12675;SDS011;63820;65.654;21.944;2023-04-15T11:51:35;6.27;;;2.20;;
12675;SDS011;63820;65.654;21.944;2023-04-15T11:54:19;3.50;;;2.20;;
12675;SDS011;63820;65.654;21.944;2023-04-15T11:57:03;7.47;;;2.30;;
12675;SDS011;63820;65.654;21.944;2023-04-15T11:59:47;3.83;;;2.50;;
12675;SDS011;63820;65.654;21.944;2023-04-15T12:02:31;2.83;;;2.20;;
12675;SDS011;63820;65.654;21.944;2023-04-15T12:05:19;4.77;;;2.50;;
12675;SDS011;63820;65.654;21.944;2023-04-15T12:08:03;3.67;;;2.67;;
12675;SDS011;63820;65.654;21.944;2023-04-15T12:10:47;4.83;;;2.90;;
12675;SDS011;63820;65.654;21.944;2023-04-15T12:13:31;4.70;;;3.00;;
12675;SDS011;63820;65.654;21.944;2023-04-15T12:16:16;4.60;;;3.60;;
12675;SDS011;63820;65.654;21.944;2023-04-15T12:19:06;5.67;;;3.40;;
12675;SDS011;63820;65.654;21.944;2023-04-15T12:22:03;4.90;;;2.80;;
12675;SDS011;63820;65.654;21.944;2023-04-15T12:24:53;4.93;;;3.20;;
12675;SDS011;63820;65.654;21.944;2023-04-15T12:27:40;5.50;;;2.60;;
12675;SDS011;63820;65.654;21.944;2023-04-15T12:30:25;3.30;;;2.70;;
12675;SDS011;63820;65.654;21.944;2023-04-15T12:33:09;3.50;;;2.77;;
12675;SDS011;63820;65.654;21.944;2023-04-15T12:35:54;4.60;;;2.43;;
12675;SDS011;63820;65.654;21.944;2023-04-15T12:38:38;4.30;;;2.43;;
12675;SDS011;63820;65.654;21.944;2023-04-15T12:41:22;4.40;;;2.47;;
12675;SDS011;63820;65.654;21.944;2023-04-15T12:44:07;2.43;;;1.80;;
12675;SDS011;63820;65.654;21.944;2023-04-15T12:46:51;6.03;;;2.03;;
12675;SDS011;63820;65.654;21.944;2023-04-15T12:49:36;4.83;;;2.70;;
12675;SDS011;63820;65.654;21.944;2023-04-15T12:52:20;4.70;;;2.93;;
12675;SDS011;63820;65.654;21.944;2023-04-15T12:55:06;6.40;;;3.37;;
12675;SDS011;63820;65.654;21.944;2023-04-15T12:57:50;5.03;;;3.00;;
12675;SDS011;63820;65.654;21.944;2023-04-15T13:00:35;4.93;;;3.00;;
12675;SDS011;63820;65.654;21.944;2023-04-15T13:03:19;5.20;;;3.10;;
12675;SDS011;63820;65.654;21.944;2023-04-15T13:06:03;3.53;;;2.10;;
12675;SDS011;63820;65.654;21.944;2023-04-15T13:08:48;4.70;;;2.27;;
12675;SDS011;63820;65.654;21.944;2023-04-15T13:11:32;3.10;;;2.10;;
12675;SDS011;63820;65.654;21.944;2023-04-15T13:14:16;10.30;;;2.90;;
12675;SDS011;63820;65.654;21.944;2023-04-15T13:17:02;2.47;;;2.27;;
12675;SDS011;63820;65.654;21.944;2023-04-15T13:19:51;6.80;;;2.80;;
12675;SDS011;63820;65.654;21.944;2023-04-15T13:22:35;3.77;;;3.37;;
12675;SDS011;63820;65.654;21.944;2023-04-15T13:25:19;5.60;;;3.27;;
12675;SDS011;63820;65.654;21.944;2023-04-15T13:28:03;6.03;;;2.90;;
12675;SDS011;63820;65.654;21.944;2023-04-15T13:30:48;5.10;;;2.97;;
12675;SDS011;63820;65.654;21.944;2023-04-15T13:33:32;7.80;;;3.60;;
12675;SDS011;63820;65.654;21.944;2023-04-15T13:36:16;4.73;;;2.80;;
12675;SDS011;63820;65.654;21.944;2023-04-15T13:39:00;4.87;;;3.00;;
12675;SDS011;63820;65.654;21.944;2023-04-15T13:41:45;3.47;;;2.50;;
12675;SDS011;63820;65.654;21.944;2023-04-15T13:44:31;5.23;;;3.20;;
12675;SDS011;63820;65.654;21.944;2023-04-15T13:47:15;5.27;;;3.30;;
12675;SDS011;63820;65.654;21.944;2023-04-15T13:50:00;6.83;;;3.30;;
12675;SDS011;63820;65.654;21.944;2023-04-15T13:52:44;3.27;;;2.30;;
12675;SDS011;63820;65.654;21.944;2023-04-15T13:55:28;3.73;;;2.40;;
12675;SDS011;63820;65.654;21.944;2023-04-15T13:58:12;4.60;;;2.40;;
12675;SDS011;63820;65.654;21.944;2023-04-15T14:00:56;5.07;;;2.80;;
12675;SDS011;63820;65.654;21.944;2023-04-15T14:03:40;4.80;;;2.87;;
12675;SDS011;63820;65.654;21.944;2023-04-15T14:06:24;6.23;;;2.90;;
12675;SDS011;63820;65.654;21.944;2023-04-15T14:09:10;3.90;;;2.53;;
12675;SDS011;63820;65.654;21.944;2023-04-15T14:11:54;5.47;;;2.67;;
12675;SDS011;63820;65.654;21.944;2023-04-15T14:14:39;5.67;;;2.50;;
12675;SDS011;63820;65.654;21.944;2023-04-15T14:17:23;4.10;;;2.43;;
12675;SDS011;63820;65.654;21.944;2023-04-15T14:20:07;5.30;;;2.53;;
12675;SDS011;63820;65.654;21.944;2023-04-15T14:22:52;4.20;;;2.27;;
12675;SDS011;63820;65.654;21.944;2023-04-15T14:25:36;17.83;;;4.20;;
12675;SDS011;63820;65.654;21.944;2023-04-15T14:28:22;4.57;;;2.23;;
12675;SDS011;63820;65.654;21.944;2023-04-15T14:31:07;3.53;;;2.40;;
12675;SDS011;63820;65.654;21.944;2023-04-15T14:33:51;5.73;;;2.50;;
12675;SDS011;63820;65.654;21.944;2023-04-15T14:36:35;5.73;;;2.97;;
12675;SDS011;63820;65.654;21.944;2023-04-15T14:39:19;5.50;;;3.00;;
12675;SDS011;63820;65.654;21.944;2023-04-15T14:42:03;5.57;;;3.10;;
12675;SDS011;63820;65.654;21.944;2023-04-15T14:44:48;5.13;;;2.80;;
12675;SDS011;63820;65.654;21.944;2023-04-15T14:47:33;6.37;;;2.80;;
12675;SDS011;63820;65.654;21.944;2023-04-15T14:50:17;4.43;;;2.87;;
12675;SDS011;63820;65.654;21.944;2023-04-15T14:53:01;4.87;;;2.90;;
12675;SDS011;63820;65.654;21.944;2023-04-15T14:55:45;3.90;;;2.73;;
12675;SDS011;63820;65.654;21.944;2023-04-15T14:58:29;3.80;;;2.60;;
12675;SDS011;63820;65.654;21.944;2023-04-15T15:01:13;4.73;;;2.90;;
12675;SDS011;63820;65.654;21.944;2023-04-15T15:03:58;7.50;;;2.80;;
12675;SDS011;63820;65.654;21.944;2023-04-15T15:06:42;4.07;;;2.10;;
12675;SDS011;63820;65.654;21.944;2023-04-15T15:09:27;2.83;;;2.10;;
12675;SDS011;63820;65.654;21.944;2023-04-15T15:12:11;2.67;;;2.10;;
12675;SDS011;63820;65.654;21.944;2023-04-15T15:14:56;2.97;;;1.97;;
12675;SDS011;63820;65.654;21.944;2023-04-15T15:17:40;3.47;;;1.70;;
12675;SDS011;63820;65.654;21.944;2023-04-15T15:20:24;2.07;;;1.40;;
12675;SDS011;63820;65.654;21.944;2023-04-15T15:23:08;1.53;;;1.40;;
12675;SDS011;63820;65.654;21.944;2023-04-15T15:25:54;3.67;;;1.70;;
12675;SDS011;63820;65.654;21.944;2023-04-15T15:28:38;2.40;;;1.40;;
12675;SDS011;63820;65.654;21.944;2023-04-15T15:31:22;2.40;;;1.30;;
12675;SDS011;63820;65.654;21.944;2023-04-15T15:34:07;1.60;;;1.40;;
12675;SDS011;63820;65.654;21.944;2023-04-15T15:36:51;3.63;;;1.60;;
12675;SDS011;63820;65.654;21.944;2023-04-15T15:39:36;1.90;;;1.60;;
12675;SDS011;63820;65.654;21.944;2023-04-15T15:42:20;3.57;;;1.70;;
12675;SDS011;63820;65.654;21.944;2023-04-15T15:45:05;4.30;;;1.50;;
12675;SDS011;63820;65.654;21.944;2023-04-15T15:47:49;5.77;;;1.63;;
12675;SDS011;63820;65.654;21.944;2023-04-15T15:50:34;5.17;;;1.60;;
12675;SDS011;63820;65.654;21.944;2023-04-15T15:53:19;2.57;;;1.63;;
12675;SDS011;63820;65.654;21.944;2023-04-15T15:56:03;1.70;;;1.40;;
12675;SDS011;63820;65.654;21.944;2023-04-15T15:58:48;15.97;;;3.03;;
12675;SDS011;63820;65.654;21.944;2023-04-15T16:01:32;3.67;;;1.23;;
12675;SDS011;63820;65.654;21.944;2023-04-15T16:04:17;3.93;;;1.70;;
12675;SDS011;63820;65.654;21.944;2023-04-15T16:07:01;2.10;;;1.50;;
12675;SDS011;63820;65.654;21.944;2023-04-15T16:09:46;3.93;;;1.40;;
12675;SDS011;63820;65.654;21.944;2023-04-15T16:12:30;2.67;;;1.53;;
12675;SDS011;63820;65.654;21.944;2023-04-15T16:15:15;2.60;;;1.20;;
12675;SDS011;63820;65.654;21.944;2023-04-15T16:17:59;10.77;;;1.67;;
12675;SDS011;63820;65.654;21.944;2023-04-15T16:20:43;6.13;;;1.60;;
12675;SDS011;63820;65.654;21.944;2023-04-15T16:23:28;3.27;;;1.40;;
12675;SDS011;63820;65.654;21.944;2023-04-15T16:26:12;3.20;;;1.30;;
12675;SDS011;63820;65.654;21.944;2023-04-15T16:28:56;1.97;;;1.20;;
12675;SDS011;63820;65.654;21.944;2023-04-15T16:31:40;2.33;;;1.60;;
12675;SDS011;63820;65.654;21.944;2023-04-15T16:34:24;2.07;;;1.50;;
12675;SDS011;63820;65.654;21.944;2023-04-15T16:37:08;4.00;;;1.80;;
12675;SDS011;63820;65.654;21.944;2023-04-15T16:39:52;3.73;;;1.90;;
12675;SDS011;63820;65.654;21.944;2023-04-15T16:42:36;7.50;;;2.37;;
12675;SDS011;63820;65.654;21.944;2023-04-15T16:45:20;5.40;;;2.30;;
12675;SDS011;63820;65.654;21.944;2023-04-15T16:48:05;2.93;;;1.80;;
12675;SDS011;63820;65.654;21.944;2023-04-15T16:50:50;2.73;;;1.70;;
12675;SDS011;63820;65.654;21.944;2023-04-15T16:53:34;2.07;;;1.67;;
12675;SDS011;63820;65.654;21.944;2023-04-15T16:56:18;3.97;;;1.63;;
12675;SDS011;63820;65.654;21.944;2023-04-15T16:59:02;3.70;;;1.30;;
12675;SDS011;63820;65.654;21.944;2023-04-15T17:01:45;1.83;;;1.40;;
12675;SDS011;63820;65.654;21.944;2023-04-15T17:04:29;1.90;;;1.10;;
12675;SDS011;63820;65.654;21.944;2023-04-15T17:07:13;1.63;;;1.30;;
12675;SDS011;63820;65.654;21.944;2023-04-15T17:09:58;3.13;;;1.40;;
12675;SDS011;63820;65.654;21.944;2023-04-15T17:12:42;2.93;;;1.20;;
12675;SDS011;63820;65.654;21.944;2023-04-15T17:15:27;3.57;;;1.37;;
12675;SDS011;63820;65.654;21.944;2023-04-15T17:18:11;2.43;;;1.40;;
12675;SDS011;63820;65.654;21.944;2023-04-15T17:20:55;6.77;;;1.60;;
12675;SDS011;63820;65.654;21.944;2023-04-15T17:23:39;3.73;;;1.40;;
12675;SDS011;63820;65.654;21.944;2023-04-15T17:26:23;4.00;;;1.90;;
12675;SDS011;63820;65.654;21.944;2023-04-15T17:29:08;5.67;;;1.63;;
12675;SDS011;63820;65.654;21.944;2023-04-15T17:31:53;4.87;;;1.77;;
12675;SDS011;63820;65.654;21.944;2023-04-15T17:34:38;2.90;;;1.30;;
12675;SDS011;63820;65.654;21.944;2023-04-15T17:37:22;2.27;;;1.80;;
12675;SDS011;63820;65.654;21.944;2023-04-15T17:40:06;3.10;;;1.57;;
12675;SDS011;63820;65.654;21.944;2023-04-15T17:42:51;2.43;;;1.40;;
12675;SDS011;63820;65.654;21.944;2023-04-15T17:45:35;6.13;;;1.87;;
12675;SDS011;63820;65.654;21.944;2023-04-15T17:48:19;5.83;;;1.87;;
12675;SDS011;63820;65.654;21.944;2023-04-15T17:51:04;2.43;;;1.73;;
12675;SDS011;63820;65.654;21.944;2023-04-15T17:53:48;4.37;;;1.77;;
12675;SDS011;63820;65.654;21.944;2023-04-15T17:56:32;4.07;;;1.90;;
12675;SDS011;63820;65.654;21.944;2023-04-15T17:59:17;3.50;;;1.53;;
12675;SDS011;63820;65.654;21.944;2023-04-15T18:02:01;4.37;;;1.80;;
12675;SDS011;63820;65.654;21.944;2023-04-15T18:04:45;2.00;;;1.70;;
12675;SDS011;63820;65.654;21.944;2023-04-15T18:07:29;4.13;;;1.60;;
12675;SDS011;63820;65.654;21.944;2023-04-15T18:10:13;3.77;;;1.40;;
12675;SDS011;63820;65.654;21.944;2023-04-15T18:12:57;3.33;;;1.57;;